Time;durP1;ratioP1;P1;durP2;ratioP2;P2;SDS_P1;SDS_P2;PMS_P1;PMS_P2;Temp;Humidity;BMP_temperature;BMP_pressure;BME280_temperature;BME280_humidity;BME280_pressure;Samples;Min_cycle;Max_cycle;Signal;HPM_P1;HPM_P2
2021/01/01 00:00:14;;;;;;;231.25;142.43;;;;;;;-0.03;85.34;95199.28;5104052;27;20047;-62
2021/01/01 00:02:42;;;;;;;247.20;146.07;;;;;;;-0.05;84.74;95201.28;5108184;27;20047;-61
2021/01/01 00:05:15;;;;;;;213.00;135.68;;;;;;;-0.12;85.47;95193.53;5072273;27;20407;-61
2021/01/01 00:07:44;;;;;;;194.57;122.32;;;;;;;-0.12;85.25;95201.28;5107951;27;20979;-66
2021/01/01 00:10:15;;;;;;;213.70;127.85;;;;;;;-0.13;85.31;95209.28;5107682;27;20062;-61
2021/01/01 00:12:42;;;;;;;202.02;119.03;;;;;;;-0.17;85.75;95201.09;5087085;27;20054;-62
2021/01/01 00:15:11;;;;;;;193.82;114.95;;;;;;;-0.20;85.42;95210.09;5106600;27;20051;-61
2021/01/01 00:17:39;;;;;;;197.38;115.18;;;;;;;-0.24;85.81;95208.13;5107524;27;20573;-62
2021/01/01 00:20:08;;;;;;;183.88;105.18;;;;;;;-0.24;85.59;95205.53;5106544;27;20047;-62
2021/01/01 00:22:36;;;;;;;150.63;93.30;;;;;;;-0.24;85.57;95213.31;5104340;27;20050;-61
2021/01/01 00:25:04;;;;;;;142.55;88.55;;;;;;;-0.25;85.45;95209.13;5094079;27;20053;-61
2021/01/01 00:27:33;;;;;;;135.40;81.72;;;;;;;-0.25;85.41;95219.50;5107757;27;20043;-61
2021/01/01 00:30:00;;;;;;;170.30;91.35;;;;;;;-0.24;85.18;95231.44;5106953;27;20062;-61
2021/01/01 00:32:32;;;;;;;148.40;74.05;;;;;;;-0.24;85.52;95228.84;5064811;28;20059;-62
2021/01/01 00:34:59;;;;;;;125.93;60.72;;;;;;;-0.27;85.50;95218.88;5061408;27;20447;-61
2021/01/01 00:37:26;;;;;;;130.90;63.10;;;;;;;-0.28;85.33;95227.66;5106690;27;20486;-61
2021/01/01 00:39:53;;;;;;;128.20;63.00;;;;;;;-0.32;85.03;95232.47;5088886;27;20118;-61
2021/01/01 00:42:21;;;;;;;155.13;60.65;;;;;;;-0.36;85.43;95233.84;5088705;28;20039;-62
2021/01/01 00:44:48;;;;;;;176.00;66.82;;;;;;;-0.41;85.44;95234.47;5089750;27;20414;-61
2021/01/01 00:47:18;;;;;;;165.07;68.45;;;;;;;-0.42;85.42;95238.06;5087059;27;20130;-62
2021/01/01 00:49:45;;;;;;;203.48;66.95;;;;;;;-0.49;85.48;95234.69;5104996;27;20511;-62
2021/01/01 00:52:12;;;;;;;345.30;95.72;;;;;;;-0.52;85.11;95237.69;5105767;27;20052;-61
2021/01/01 00:54:39;;;;;;;330.98;100.07;;;;;;;-0.70;85.79;95243.50;5104701;27;20035;-61
2021/01/01 00:57:06;;;;;;;368.90;98.45;;;;;;;-0.83;85.91;95252.09;5106138;27;20054;-62
2021/01/01 00:59:34;;;;;;;307.30;85.97;;;;;;;-0.79;86.12;95248.06;5106456;27;20054;-62
2021/01/01 01:02:01;;;;;;;224.93;76.25;;;;;;;-0.76;86.26;95252.09;5087062;27;20055;-61
2021/01/01 01:04:29;;;;;;;223.85;77.35;;;;;;;-0.76;86.21;95252.88;5064056;27;20051;-62
2021/01/01 01:06:56;;;;;;;323.95;91.18;;;;;;;-0.84;85.63;95258.25;5086286;27;20062;-61
2021/01/01 01:09:24;;;;;;;242.02;84.28;;;;;;;-0.93;85.94;95253.28;5087159;27;20578;-62
2021/01/01 01:11:51;;;;;;;200.60;79.90;;;;;;;-1.03;86.06;95258.03;5104626;27;20050;-61
2021/01/01 01:14:18;;;;;;;380.67;107.90;;;;;;;-1.10;86.45;95259.84;5103683;27;20050;-62
2021/01/01 01:16:45;;;;;;;212.60;89.07;;;;;;;-1.14;86.23;95266.41;5087108;27;20154;-62
2021/01/01 01:19:12;;;;;;;214.70;88.68;;;;;;;-1.11;86.81;95253.06;5104019;27;20495;-61
2021/01/01 01:21:39;;;;;;;301.85;97.13;;;;;;;-1.08;86.96;95255.28;5089362;27;20055;-61
2021/01/01 01:24:07;;;;;;;286.98;99.57;;;;;;;-1.02;86.91;95249.28;5078960;28;20051;-61
2021/01/01 01:26:34;;;;;;;224.35;90.43;;;;;;;-0.99;87.12;95248.09;5087403;27;20040;-61
2021/01/01 01:29:02;;;;;;;423.50;121.53;;;;;;;-0.94;86.62;95258.66;5105083;27;20047;-62
2021/01/01 01:31:30;;;;;;;257.90;93.07;;;;;;;-0.99;86.60;95253.28;5090970;27;20055;-61
2021/01/01 01:33:57;;;;;;;240.75;92.40;;;;;;;-1.01;86.26;95261.22;5087631;27;20055;-61
2021/01/01 01:36:25;;;;;;;327.15;103.63;;;;;;;-1.02;86.11;95264.03;5103355;27;20047;-61
2021/01/01 01:38:52;;;;;;;288.83;98.25;;;;;;;-1.09;86.89;95264.03;5084137;27;20807;-61
2021/01/01 01:41:19;;;;;;;341.67;102.55;;;;;;;-1.13;86.75;95271.41;5095261;28;20096;-61
2021/01/01 01:43:46;;;;;;;245.00;92.60;;;;;;;-1.16;86.99;95273.56;5056935;28;20043;-61
2021/01/01 01:46:13;;;;;;;298.50;99.30;;;;;;;-1.14;86.75;95276.75;5088272;27;20040;-61
2021/01/01 01:48:43;;;;;;;473.52;131.98;;;;;;;-1.22;86.50;95269.19;5095320;28;20455;-62
2021/01/01 01:51:12;;;;;;;565.83;149.27;;;;;;;-1.27;87.14;95270.56;5064503;28;20055;-62
2021/01/01 01:53:43;;;;;;;373.50;114.03;;;;;;;-1.25;86.67;95273.75;5086661;28;20070;-61
2021/01/01 01:56:11;;;;;;;277.33;94.25;;;;;;;-1.26;86.33;95274.75;5069855;28;20429;-61
2021/01/01 01:58:42;;;;;;;337.40;96.07;;;;;;;-1.24;87.16;95277.16;5104334;28;20051;-62
2021/01/01 02:01:11;;;;;;;272.40;89.90;;;;;;;-1.21;87.31;95281.91;5104659;28;20609;-61
2021/01/01 02:03:38;;;;;;;220.68;87.03;;;;;;;-1.16;87.21;95289.09;5086780;28;20050;-61
2021/01/01 02:06:06;;;;;;;275.13;93.95;;;;;;;-1.16;86.70;95278.72;5087262;28;20522;-62
2021/01/01 02:08:34;;;;;;;189.88;82.78;;;;;;;-1.13;86.13;95288.69;5103065;28;20036;-61
2021/01/01 02:11:03;;;;;;;219.10;86.20;;;;;;;-1.12;86.58;95290.28;5070436;28;20055;-61
2021/01/01 02:13:32;;;;;;;292.10;90.65;;;;;;;-1.11;86.18;95291.91;5070744;28;20051;-62
2021/01/01 02:15:59;;;;;;;199.13;86.82;;;;;;;-1.14;86.17;95292.28;5093756;28;20050;-62
2021/01/01 02:18:43;;;;;;;234.65;89.57;;;;;;;-1.09;86.32;95287.31;5104759;28;20195;-61
2021/01/01 02:21:17;;;;;;;220.32;90.38;;;;;;;-1.14;85.99;95282.75;5086873;28;20036;-61
2021/01/01 02:23:45;;;;;;;233.80;83.50;;;;;;;-1.16;86.08;95283.91;5083436;28;20060;-61
2021/01/01 02:26:13;;;;;;;170.23;78.63;;;;;;;-1.18;85.88;95288.50;5083215;28;20051;-61
2021/01/01 02:28:41;;;;;;;143.52;70.75;;;;;;;-1.21;85.36;95292.28;5066510;28;20047;-62
2021/01/01 02:31:08;;;;;;;248.50;90.72;;;;;;;-1.26;85.04;95277.34;5067020;28;20044;-61
2021/01/01 02:33:35;;;;;;;350.45;112.90;;;;;;;-1.32;84.36;95285.91;5067920;28;20048;-61
2021/01/01 02:36:03;;;;;;;256.80;97.93;;;;;;;-1.50;85.16;95283.06;5084988;28;20048;-61
2021/01/01 02:38:32;;;;;;;217.77;84.30;;;;;;;-1.58;85.30;95287.44;5069947;28;20047;-62
2021/01/01 02:41:00;;;;;;;254.55;91.25;;;;;;;-1.68;85.28;95281.00;5074681;28;20628;-61
2021/01/01 02:43:27;;;;;;;187.55;80.70;;;;;;;-1.70;85.21;95289.75;5083524;28;20055;-61
2021/01/01 02:45:55;;;;;;;229.95;82.38;;;;;;;-1.73;85.31;95289.34;5104314;28;20051;-62
2021/01/01 02:48:22;;;;;;;253.55;94.15;;;;;;;-1.81;85.09;95279.97;5086239;28;20062;-61
2021/01/01 02:50:51;;;;;;;194.88;81.45;;;;;;;-1.83;85.55;95287.13;5104100;28;20055;-61
2021/01/01 02:53:19;;;;;;;203.43;85.78;;;;;;;-1.90;86.13;95281.16;5103230;28;20047;-61
2021/01/01 02:55:46;;;;;;;195.85;83.53;;;;;;;-1.97;85.92;95288.88;5074813;28;20062;-61
2021/01/01 02:58:13;;;;;;;261.10;96.97;;;;;;;-2.02;86.35;95293.81;5084648;28;20058;-61
2021/01/01 03:00:41;;;;;;;155.80;77.53;;;;;;;-2.05;86.30;95291.63;5087505;28;20499;-62
2021/01/01 03:03:08;;;;;;;226.85;91.90;;;;;;;-2.09;86.66;95285.22;5086320;28;20044;-61
2021/01/01 03:05:36;;;;;;;172.38;79.18;;;;;;;-2.10;87.04;95287.03;5096337;28;20555;-61
2021/01/01 03:08:04;;;;;;;179.05;81.38;;;;;;;-2.11;87.74;95282.84;5095205;28;20031;-64
2021/01/01 03:10:32;;;;;;;140.88;70.53;;;;;;;-2.06;87.80;95290.81;5109061;27;20055;-61
2021/01/01 03:12:59;;;;;;;225.02;83.93;;;;;;;-1.94;87.37;95295.44;5089051;27;20046;-62
2021/01/01 03:15:26;;;;;;;207.00;80.80;;;;;;;-1.94;87.14;95285.09;5101191;27;20602;-61
2021/01/01 03:17:54;;;;;;;150.52;70.82;;;;;;;-2.00;86.77;95278.91;5086058;28;20094;-63
2021/01/01 03:20:21;;;;;;;136.27;69.00;;;;;;;-2.00;86.57;95291.81;5090527;27;20060;-61
2021/01/01 03:22:48;;;;;;;159.00;74.20;;;;;;;-2.02;86.84;95291.22;5107438;27;20062;-61
2021/01/01 03:25:15;;;;;;;137.98;64.15;;;;;;;-2.04;86.28;95286.25;5107502;27;20137;-62
2021/01/01 03:27:42;;;;;;;149.23;67.15;;;;;;;-2.05;86.34;95283.88;5093389;27;20055;-62
2021/01/01 03:30:10;;;;;;;167.70;73.70;;;;;;;-2.12;86.15;95290.78;5071539;27;20598;-61
2021/01/01 03:32:38;;;;;;;141.40;64.70;;;;;;;-2.17;86.67;95297.34;5110078;27;20054;-61
2021/01/01 03:35:06;;;;;;;147.35;64.82;;;;;;;-2.19;86.44;95301.88;5073277;27;20498;-61
2021/01/01 03:37:36;;;;;;;131.07;62.88;;;;;;;-2.26;86.73;95305.41;5097084;27;20091;-62
2021/01/01 03:40:05;;;;;;;111.63;58.40;;;;;;;-2.21;86.92;95303.03;5063124;27;20081;-61
2021/01/01 03:42:34;;;;;;;124.40;59.45;;;;;;;-2.19;86.69;95304.47;5086688;28;20063;-61
2021/01/01 03:45:01;;;;;;;178.32;68.32;;;;;;;-2.20;85.68;95307.22;5072891;27;20043;-61
2021/01/01 03:47:28;;;;;;;105.20;54.50;;;;;;;-2.21;85.83;95309.03;5072858;28;20061;-61
2021/01/01 03:49:55;;;;;;;107.93;56.90;;;;;;;-2.20;85.83;95310.63;5110835;27;20035;-61
2021/01/01 03:52:23;;;;;;;102.10;53.45;;;;;;;-2.19;85.73;95306.25;5108957;27;20365;-62
2021/01/01 03:54:50;;;;;;;95.38;51.90;;;;;;;-2.19;85.85;95306.25;5089719;28;20047;-62
2021/01/01 03:57:17;;;;;;;115.00;58.22;;;;;;;-2.18;85.67;95308.66;5107426;27;20050;-61
2021/01/01 03:59:45;;;;;;;95.65;50.13;;;;;;;-2.29;85.80;95291.09;5087852;28;20054;-61
2021/01/01 04:02:12;;;;;;;118.93;56.47;;;;;;;-2.13;85.92;95310.66;5106655;27;20165;-61
2021/01/01 04:04:39;;;;;;;94.90;52.95;;;;;;;-2.09;85.69;95316.25;5089891;27;20055;-61
2021/01/01 04:07:06;;;;;;;91.72;48.80;;;;;;;-2.05;86.03;95312.28;5110603;27;20059;-61
2021/01/01 04:09:34;;;;;;;97.13;48.72;;;;;;;-2.11;85.62;95318.22;5109345;27;20305;-65
2021/01/01 04:12:01;;;;;;;105.65;54.08;;;;;;;-2.10;85.87;95320.63;5110525;27;20177;-61
2021/01/01 04:14:30;;;;;;;92.97;51.20;;;;;;;-2.10;85.63;95323.22;5092261;28;20047;-61
2021/01/01 04:16:58;;;;;;;102.75;52.00;;;;;;;-2.10;85.48;95314.66;5077963;28;20051;-61
2021/01/01 04:19:25;;;;;;;101.68;53.13;;;;;;;-2.09;86.30;95316.25;5091718;27;20058;-62
2021/01/01 04:21:52;;;;;;;85.95;46.67;;;;;;;-2.05;86.29;95312.28;5092410;27;20078;-61
2021/01/01 04:24:19;;;;;;;97.32;48.30;;;;;;;-2.05;85.97;95312.28;5088599;28;20056;-61
2021/01/01 04:26:47;;;;;;;85.68;49.20;;;;;;;-1.99;86.68;95308.94;5106522;27;20070;-61
2021/01/01 04:29:14;;;;;;;79.35;46.05;;;;;;;-1.91;86.55;95306.19;5085461;28;20056;-61
2021/01/01 04:31:42;;;;;;;95.90;50.65;;;;;;;-1.83;86.69;95312.97;5106678;27;20210;-61
2021/01/01 04:34:09;;;;;;;84.00;47.35;;;;;;;-1.74;86.70;95314.44;5105119;27;20056;-61
2021/01/01 04:36:37;;;;;;;94.60;51.83;;;;;;;-1.68;87.17;95315.44;5072784;28;20070;-61
2021/01/01 04:39:05;;;;;;;91.78;47.22;;;;;;;-1.66;86.63;95316.03;5085477;28;20048;-61
2021/01/01 04:41:34;;;;;;;96.28;48.97;;;;;;;-1.64;86.76;95314.03;5107243;27;20059;-61
2021/01/01 04:44:04;;;;;;;94.97;50.58;;;;;;;-1.64;87.19;95314.03;5106588;27;20050;-61
2021/01/01 04:46:32;;;;;;;107.30;51.85;;;;;;;-1.59;87.56;95316.88;5088849;28;20039;-61
2021/01/01 04:49:09;;;;;;;95.15;48.20;;;;;;;-1.57;87.24;95320.06;5079738;28;20454;-61
2021/01/01 04:51:36;;;;;;;96.28;52.58;;;;;;;-1.47;87.02;95324.06;5068607;28;20522;-62
2021/01/01 04:54:04;;;;;;;82.88;48.40;;;;;;;-1.44;87.56;95329.63;5105862;27;20051;-65
2021/01/01 04:56:32;;;;;;;89.30;46.20;;;;;;;-1.36;87.09;95330.47;5098073;27;20070;-61
2021/01/01 04:59:01;;;;;;;94.43;48.97;;;;;;;-1.33;86.85;95333.47;5085799;28;20031;-61
2021/01/01 05:01:29;;;;;;;91.57;51.30;;;;;;;-1.32;87.13;95332.47;5107016;27;20059;-60
2021/01/01 05:03:56;;;;;;;88.20;48.50;;;;;;;-1.29;87.37;95331.28;5098558;27;20054;-61
2021/01/01 05:06:30;;;;;;;95.15;47.58;;;;;;;-1.22;87.46;95331.28;5078179;27;20047;-61
2021/01/01 05:08:59;;;;;;;98.18;50.08;;;;;;;-1.22;87.43;95337.25;5085979;27;20056;-61
2021/01/01 05:11:26;;;;;;;95.10;52.22;;;;;;;-1.19;87.26;95342.03;5108827;27;20506;-61
2021/01/01 05:13:55;;;;;;;96.15;48.65;;;;;;;-1.16;87.30;95352.00;5106505;27;20473;-61
2021/01/01 05:16:22;;;;;;;87.85;49.78;;;;;;;-1.18;87.51;95342.84;5070203;28;20078;-61
2021/01/01 05:18:50;;;;;;;95.30;50.47;;;;;;;-1.17;87.83;95342.66;5087013;28;20047;-61
2021/01/01 05:21:24;;;;;;;80.72;44.67;;;;;;;-1.10;88.03;95350.44;5104851;27;20562;-61
2021/01/01 05:23:53;;;;;;;82.90;45.10;;;;;;;-1.06;87.57;95346.47;5104944;27;20625;-61
2021/01/01 05:26:25;;;;;;;88.60;46.65;;;;;;;-1.02;87.14;95350.25;5085207;27;20048;-61
2021/01/01 05:29:04;;;;;;;71.07;40.00;;;;;;;-0.90;87.11;95352.25;5077853;27;20056;-61
2021/01/01 05:31:39;;;;;;;82.55;46.72;;;;;;;-0.87;86.65;95357.84;5105163;27;20051;-61
2021/01/01 05:34:13;;;;;;;80.20;45.72;;;;;;;-0.84;87.54;95359.25;5101418;28;20509;-61
2021/01/01 05:36:45;;;;;;;73.80;42.50;;;;;;;-0.79;87.12;95354.25;5102594;28;20070;-61
2021/01/01 05:39:13;;;;;;;61.97;39.30;;;;;;;-0.69;86.89;95367.63;5107148;27;20040;-61
2021/01/01 05:41:41;;;;;;;62.30;35.45;;;;;;;-0.63;86.23;95361.66;5087041;27;20054;-61
2021/01/01 05:44:09;;;;;;;77.10;42.40;;;;;;;-0.66;86.62;95362.03;5085181;28;20062;-61
2021/01/01 05:46:58;;;;;;;59.00;31.23;;;;;;;-0.64;86.45;95367.03;5068042;28;20059;-61
2021/01/01 05:49:30;;;;;;;50.65;27.58;;;;;;;-0.57;86.66;95362.66;5086656;28;20047;-61
2021/01/01 05:52:08;;;;;;;44.33;26.15;;;;;;;-0.51;86.42;95364.47;5084560;28;20051;-61
2021/01/01 05:54:46;;;;;;;41.20;24.88;;;;;;;-0.53;86.14;95371.63;5085293;28;20137;-61
2021/01/01 05:57:15;;;;;;;35.08;20.38;;;;;;;-0.51;85.58;95371.41;5076224;28;20126;-61
2021/01/01 05:59:45;;;;;;;32.83;19.35;;;;;;;-0.47;84.91;95372.63;5088002;28;20063;-61
2021/01/01 06:02:13;;;;;;;37.72;20.90;;;;;;;-0.47;85.28;95375.22;5104098;28;20059;-61
2021/01/01 06:04:41;;;;;;;35.72;19.23;;;;;;;-0.56;84.99;95379.00;5084320;28;20059;-60
2021/01/01 06:07:10;;;;;;;34.13;18.85;;;;;;;-0.58;85.48;95381.78;5104300;28;20074;-61
2021/01/01 06:09:38;;;;;;;40.95;21.45;;;;;;;-0.57;85.44;95380.00;5104476;28;20090;-60
2021/01/01 06:12:09;;;;;;;33.03;20.15;;;;;;;-0.57;85.43;95388.56;5094895;28;20044;-61
2021/01/01 06:14:44;;;;;;;36.33;18.30;;;;;;;-0.49;85.55;95388.34;5088700;28;20039;-61
2021/01/01 06:17:11;;;;;;;27.65;15.63;;;;;;;-0.43;85.04;95391.16;5094572;28;20058;-61
2021/01/01 06:19:48;;;;;;;27.98;17.65;;;;;;;-0.39;84.42;95387.97;5071762;28;20051;-63
2021/01/01 06:22:18;;;;;;;33.40;17.85;;;;;;;-0.37;84.18;95390.38;5105490;28;20055;-61
2021/01/01 06:25:06;;;;;;;31.90;19.15;;;;;;;-0.36;84.82;95389.34;5100379;28;20043;-60
2021/01/01 06:27:34;;;;;;;34.70;18.75;;;;;;;-0.35;84.75;95391.75;5104525;28;20527;-61
2021/01/01 06:30:10;;;;;;;29.52;17.25;;;;;;;-0.36;85.29;95395.34;5083737;28;20046;-61
2021/01/01 06:32:38;;;;;;;29.98;17.60;;;;;;;-0.38;84.23;95393.97;5100316;28;20048;-61
2021/01/01 06:35:20;;;;;;;26.75;15.65;;;;;;;-0.36;84.76;95392.75;5081935;28;20050;-61
2021/01/01 06:37:53;;;;;;;28.25;15.32;;;;;;;-0.34;84.41;95403.72;5085129;28;20066;-61
2021/01/01 06:40:20;;;;;;;31.83;17.52;;;;;;;-0.29;84.27;95402.31;5055643;27;20450;-61
2021/01/01 06:42:54;;;;;;;28.33;16.02;;;;;;;-0.37;84.70;95403.31;5088328;27;20411;-61
2021/01/01 06:45:36;;;;;;;29.55;16.27;;;;;;;-0.36;85.17;95408.31;5072823;28;20059;-61
2021/01/01 06:48:07;;;;;;;27.75;16.38;;;;;;;-0.33;84.15;95410.50;5103167;27;20047;-61
2021/01/01 06:50:37;;;;;;;24.70;14.90;;;;;;;-0.29;83.77;95410.09;5090646;28;20048;-61
2021/01/01 06:53:15;;;;;;;24.30;15.32;;;;;;;-0.26;83.60;95401.91;5106542;27;20290;-62
2021/01/01 06:55:44;;;;;;;25.17;15.65;;;;;;;-0.24;84.02;95416.25;5102886;27;20391;-61
2021/01/01 06:58:13;;;;;;;21.70;13.73;;;;;;;-0.23;83.69;95419.66;5106797;27;20566;-61
2021/01/01 07:00:49;;;;;;;28.02;16.38;;;;;;;-0.20;83.22;95416.69;5108686;27;20031;-60
2021/01/01 07:03:28;;;;;;;23.00;14.95;;;;;;;-0.17;83.33;95422.25;5090724;27;20055;-61
2021/01/01 07:05:57;;;;;;;24.05;15.18;;;;;;;-0.17;83.10;95424.84;5104701;27;20046;-61
2021/01/01 07:08:42;;;;;;;23.35;14.43;;;;;;;-0.18;82.94;95425.84;5090024;27;20698;-61
2021/01/01 07:11:09;;;;;;;27.15;15.82;;;;;;;-0.17;82.74;95422.25;5088118;28;20098;-61
2021/01/01 07:13:44;;;;;;;26.10;15.95;;;;;;;-0.19;83.22;95413.88;5089823;27;20415;-61
2021/01/01 07:16:12;;;;;;;26.52;16.17;;;;;;;-0.16;83.50;95417.84;5107137;27;20411;-61
2021/01/01 07:18:40;;;;;;;23.95;15.10;;;;;;;-0.12;83.26;95419.06;5089099;27;20074;-61
2021/01/01 07:21:10;;;;;;;27.50;17.52;;;;;;;-0.09;83.25;95423.84;5098046;27;20046;-60
2021/01/01 07:23:37;;;;;;;25.75;15.75;;;;;;;-0.10;82.74;95427.44;5098951;27;20070;-61
2021/01/01 07:26:05;;;;;;;25.80;16.05;;;;;;;-0.14;82.81;95428.84;5106555;27;20058;-61
2021/01/01 07:28:40;;;;;;;25.75;16.67;;;;;;;-0.16;83.80;95430.81;5108260;27;20044;-61
2021/01/01 07:31:11;;;;;;;28.00;15.60;;;;;;;-0.10;82.82;95430.03;5082286;27;20047;-62
2021/01/01 07:33:41;;;;;;;23.42;14.73;;;;;;;-0.06;82.90;95430.44;5103273;27;20578;-62
2021/01/01 07:36:11;;;;;;;23.33;15.48;;;;;;;0.01;83.42;95436.41;5108016;27;20415;-63
2021/01/01 07:38:40;;;;;;;23.17;15.07;;;;;;;0.09;82.67;95431.03;5111165;27;20048;-61
2021/01/01 07:41:08;;;;;;;21.60;14.27;;;;;;;0.15;83.01;95444.97;5086960;27;20050;-60
2021/01/01 07:43:35;;;;;;;27.92;16.30;;;;;;;0.12;82.84;95446.16;5107382;27;20050;-60
2021/01/01 07:46:06;;;;;;;27.95;16.55;;;;;;;0.20;82.88;95444.38;5065485;27;20059;-61
2021/01/01 07:48:34;;;;;;;32.75;18.73;;;;;;;0.18;83.02;95449.78;5082176;27;20502;-62
2021/01/01 07:51:09;;;;;;;32.05;20.15;;;;;;;0.15;83.33;95450.16;5108055;27;20397;-62
2021/01/01 07:53:37;;;;;;;34.00;20.40;;;;;;;0.16;84.55;95454.38;5100284;28;20423;-61
2021/01/01 07:56:08;;;;;;;36.33;20.98;;;;;;;0.24;84.71;95454.16;5090847;27;20040;-62
2021/01/01 07:58:37;;;;;;;38.33;21.05;;;;;;;0.30;83.77;95453.34;5096651;27;20048;-60
2021/01/01 08:01:09;;;;;;;40.45;22.60;;;;;;;0.28;83.26;95457.94;5107141;27;20036;-61
2021/01/01 08:03:39;;;;;;;43.00;22.75;;;;;;;0.28;83.45;95460.53;5108608;27;20462;-61
2021/01/01 08:06:09;;;;;;;41.55;23.60;;;;;;;0.30;83.71;95457.72;5092604;27;20050;-61
2021/01/01 08:08:37;;;;;;;43.47;21.30;;;;;;;0.28;83.57;95460.53;5106328;27;20051;-61
2021/01/01 08:11:07;;;;;;;34.05;20.85;;;;;;;0.22;83.93;95460.53;5101799;28;20038;-61
2021/01/01 08:13:35;;;;;;;42.25;23.70;;;;;;;0.32;83.42;95473.06;5085551;28;20055;-61
2021/01/01 08:16:14;;;;;;;45.78;25.55;;;;;;;0.29;83.30;95469.91;5109511;27;20048;-61
2021/01/01 08:18:42;;;;;;;42.25;23.85;;;;;;;0.23;83.58;95467.31;5107757;27;20043;-61
2021/01/01 08:21:10;;;;;;;41.65;22.65;;;;;;;0.22;83.71;95471.69;5107225;27;20415;-63
2021/01/01 08:23:58;;;;;;;49.40;24.63;;;;;;;0.29;84.04;95475.09;5087503;27;20052;-63
2021/01/01 08:26:26;;;;;;;37.65;22.70;;;;;;;0.23;83.37;95478.47;5109403;27;20054;-63
2021/01/01 08:28:56;;;;;;;38.65;21.83;;;;;;;0.27;83.36;95476.28;5089018;27;20059;-61
2021/01/01 08:31:24;;;;;;;43.42;22.55;;;;;;;0.32;82.97;95480.88;5072405;27;20044;-67
2021/01/01 08:33:52;;;;;;;43.45;23.25;;;;;;;0.28;83.38;95483.88;5084885;28;20039;-62
2021/01/01 08:36:29;;;;;;;40.13;22.83;;;;;;;0.30;82.65;95481.06;5098168;28;20048;-62
2021/01/01 08:39:12;;;;;;;44.85;24.15;;;;;;;0.30;82.76;95479.28;5081541;27;20062;-62
2021/01/01 08:41:44;;;;;;;46.08;24.15;;;;;;;0.33;82.78;95485.06;5093441;27;20039;-61
2021/01/01 08:44:13;;;;;;;43.03;24.38;;;;;;;0.34;82.38;95489.25;5089549;27;20047;-62
2021/01/01 08:46:40;;;;;;;41.72;24.85;;;;;;;0.37;82.10;95494.03;5072985;27;20073;-62
2021/01/01 08:49:15;;;;;;;37.50;22.10;;;;;;;0.38;82.04;95486.03;5105740;27;20536;-62
2021/01/01 08:51:43;;;;;;;42.30;23.25;;;;;;;0.31;82.81;95485.28;5106401;27;20051;-62
2021/01/01 08:54:30;;;;;;;39.38;21.73;;;;;;;0.34;83.16;95494.44;5098171;27;20070;-62
2021/01/01 08:56:59;;;;;;;37.15;20.90;;;;;;;0.41;82.70;95495.25;5075645;28;20503;-61
2021/01/01 08:59:28;;;;;;;37.85;21.88;;;;;;;0.43;82.37;95499.22;5088275;28;20491;-61
2021/01/01 09:01:56;;;;;;;32.72;19.77;;;;;;;0.45;82.39;95501.59;5106920;27;20055;-62
2021/01/01 09:04:24;;;;;;;44.38;23.70;;;;;;;0.45;82.87;95505.00;5068881;28;20050;-62
2021/01/01 09:06:59;;;;;;;35.85;21.52;;;;;;;0.48;82.39;95498.63;5109394;27;20291;-62
2021/01/01 09:09:29;;;;;;;35.35;20.67;;;;;;;0.50;81.97;95499.22;5087869;28;20069;-61
2021/01/01 09:12:15;;;;;;;47.78;25.10;;;;;;;0.54;82.98;95500.41;5104219;27;20047;-63
2021/01/01 09:14:55;;;;;;;37.95;20.88;;;;;;;0.58;82.19;95490.41;5108402;27;20056;-61
2021/01/01 09:17:25;;;;;;;37.80;23.25;;;;;;;0.67;81.68;95498.78;5081344;27;20087;-62
2021/01/01 09:20:03;;;;;;;34.75;20.02;;;;;;;0.72;81.29;95506.75;5090762;28;20054;-62
2021/01/01 09:22:32;;;;;;;36.28;21.33;;;;;;;0.75;80.79;95506.34;5102390;27;20055;-62
2021/01/01 09:25:25;;;;;;;30.60;19.25;;;;;;;0.82;80.12;95503.75;5094002;27;20047;-61
2021/01/01 09:27:53;;;;;;;35.15;21.58;;;;;;;0.77;80.18;95505.16;5108166;27;20081;-61
2021/01/01 09:30:23;;;;;;;37.20;21.27;;;;;;;0.80;80.77;95509.13;5106630;27;20039;-61
2021/01/01 09:32:58;;;;;;;31.85;19.75;;;;;;;0.85;80.83;95500.75;5089134;27;20136;-61
2021/01/01 09:35:27;;;;;;;37.17;20.83;;;;;;;0.87;80.23;95501.31;5104325;27;20058;-61
2021/01/01 09:38:00;;;;;;;37.30;22.98;;;;;;;0.90;80.40;95501.72;5107539;27;20054;-61
2021/01/01 09:40:30;;;;;;;34.25;19.75;;;;;;;0.92;80.10;95502.28;5101729;28;20043;-61
2021/01/01 09:43:02;;;;;;;29.23;17.85;;;;;;;0.99;78.96;95499.69;5085779;28;20039;-61
2021/01/01 09:45:31;;;;;;;27.13;17.23;;;;;;;1.01;78.42;95499.50;5092906;28;20039;-62
2021/01/01 09:47:59;;;;;;;31.13;19.98;;;;;;;1.01;78.75;95491.69;5091008;28;20059;-62
2021/01/01 09:50:27;;;;;;;31.42;18.05;;;;;;;0.99;79.84;95496.31;5103028;28;20054;-62
2021/01/01 09:52:54;;;;;;;31.85;18.35;;;;;;;1.09;78.69;95495.88;5098043;28;20047;-62
2021/01/01 09:55:21;;;;;;;28.95;17.63;;;;;;;1.09;78.43;95488.88;5108213;28;20140;-62
2021/01/01 09:57:48;;;;;;;31.02;18.48;;;;;;;1.13;78.56;95500.44;5087737;28;20052;-65
2021/01/01 10:00:17;;;;;;;33.10;17.65;;;;;;;1.22;78.45;95501.03;5088949;28;20488;-62
2021/01/01 10:02:44;;;;;;;25.95;16.90;;;;;;;1.23;78.05;95497.41;5104645;28;20063;-61
2021/01/01 10:05:12;;;;;;;30.52;17.13;;;;;;;1.30;76.90;95492.16;5088658;28;20078;-62
2021/01/01 10:07:39;;;;;;;27.98;18.30;;;;;;;1.25;76.57;95489.41;5084484;28;20055;-62
2021/01/01 10:10:07;;;;;;;29.00;17.50;;;;;;;1.21;77.84;95505.41;5071248;28;20048;-62
2021/01/01 10:12:35;;;;;;;27.85;16.88;;;;;;;1.29;77.06;95498.38;5105292;28;20048;-62
2021/01/01 10:15:03;;;;;;;29.98;18.17;;;;;;;1.29;77.41;95483.59;5108304;27;20466;-62
2021/01/01 10:17:31;;;;;;;26.70;16.50;;;;;;;1.35;76.76;95487.94;5074380;28;20050;-62
2021/01/01 10:19:58;;;;;;;26.00;17.02;;;;;;;1.47;76.71;95482.09;5061317;28;20059;-63
2021/01/01 10:22:25;;;;;;;26.10;17.48;;;;;;;1.50;76.94;95489.47;5081210;28;20114;-65
2021/01/01 10:24:53;;;;;;;26.50;17.20;;;;;;;1.45;77.22;95487.50;5112222;27;20501;-62
2021/01/01 10:27:21;;;;;;;30.02;18.88;;;;;;;1.50;77.23;95479.06;5109343;27;20044;-62
2021/01/01 10:29:48;;;;;;;28.90;18.33;;;;;;;1.52;77.85;95480.47;5088395;28;20059;-63
2021/01/01 10:32:15;;;;;;;25.10;16.65;;;;;;;1.59;77.05;95475.25;5089353;28;20530;-62
2021/01/01 10:34:43;;;;;;;32.72;19.65;;;;;;;1.58;76.40;95467.63;5081437;28;20324;-63
2021/01/01 10:37:12;;;;;;;29.35;19.98;;;;;;;1.61;76.23;95473.19;5083397;28;20067;-62
2021/01/01 10:39:40;;;;;;;28.98;18.73;;;;;;;1.64;76.76;95483.19;5078373;28;20059;-62
2021/01/01 10:42:08;;;;;;;30.92;21.15;;;;;;;1.68;76.80;95470.56;5089225;28;20044;-62
2021/01/01 10:44:36;;;;;;;34.92;21.27;;;;;;;1.77;77.02;95466.72;5087111;28;20563;-61
2021/01/01 10:47:04;;;;;;;32.72;20.70;;;;;;;1.86;75.89;95469.06;5087254;28;20063;-62
2021/01/01 10:49:33;;;;;;;32.28;20.85;;;;;;;1.88;76.67;95461.84;5086355;28;20803;-62
2021/01/01 10:52:01;;;;;;;34.35;21.10;;;;;;;1.94;76.58;95464.41;5099001;28;20036;-61
2021/01/01 10:54:29;;;;;;;35.90;22.10;;;;;;;1.96;76.47;95461.56;5097421;28;20056;-62
2021/01/01 10:56:56;;;;;;;36.42;20.63;;;;;;;1.92;75.54;95463.00;5086593;28;20043;-62
2021/01/01 10:59:43;;;;;;;29.40;19.30;;;;;;;1.92;76.78;95468.19;5103100;28;20144;-62
2021/01/01 11:02:10;;;;;;;34.50;21.77;;;;;;;1.94;76.44;95461.78;5101752;28;20139;-61
2021/01/01 11:04:37;;;;;;;29.13;19.65;;;;;;;2.01;75.57;95461.75;5070049;28;20107;-62
2021/01/01 11:07:04;;;;;;;33.08;19.85;;;;;;;2.02;74.94;95458.13;5091561;28;20052;-64
2021/01/01 11:09:32;;;;;;;33.00;20.85;;;;;;;1.94;74.48;95453.19;5085358;28;20055;-62
2021/01/01 11:12:04;;;;;;;28.55;18.70;;;;;;;2.02;74.20;95447.72;5096103;28;20043;-63
2021/01/01 12:26:45;;;;;;;39.03;24.13;;;;;;;2.25;73.25;95422.91;5086794;28;20039;-62
2021/01/01 12:29:14;;;;;;;39.33;24.38;;;;;;;2.25;73.05;95426.28;5086020;28;20484;-62
2021/01/01 12:31:41;;;;;;;39.63;26.35;;;;;;;2.20;73.16;95413.16;5083498;28;20048;-62
2021/01/01 12:34:08;;;;;;;38.80;24.05;;;;;;;2.30;72.72;95428.25;5084345;28;20048;-62
2021/01/01 12:36:35;;;;;;;39.95;24.52;;;;;;;2.26;72.86;95429.72;5086282;28;20079;-62
2021/01/01 12:39:03;;;;;;;40.28;26.23;;;;;;;2.18;73.47;95429.97;5084158;28;20415;-62